Latest Coastal Weather Observations for Evans Head

IDN60701

Issued at 1:15 pm EDT Tuesday 21 October 2014 (issued every 10 minutes, with the page automatically refreshed every 10 minutes)

About coastal observations | Map of coastal stations | Coastal observations for NSW | Marine services | Other Formats
Station Details ID: 058212 Name: EVANS HEAD RAAF BOMBING RANGE AWS Lat: -29.18 Lon: 153.40 Height: 62.5 m
Data from the previous 72 hours. | See also: Recent months at Evans Head
Date/Time
EDT
Temp

°C
Wind Pressure Rain
since 9am
mm
Weather Cloud Vis
km
Sea
Height
m
Swell
Dir
 
Speed
knots
Gust
knots
hPa Trend Height
m
Period
s
Dir
21/01:12pm 20.7 S 19 29 1028.2 - 0.0 - - - - - - -
21/01:00pm 20.6 S 19 26 1028.3 - 0.0 - - - - - - -
21/12:30pm 19.8 S 21 29 1028.7 - 0.0 - - - - - - -
21/12:00pm 18.7 S 17 25 1028.9 - 0.0 - - - - - - -
21/11:30am 17.7 S 19 27 1029.0 - 0.0 - - - - - - -
21/11:00am 17.8 S 18 26 1029.1 - 0.0 - - - - - - -
21/10:36am 18.3 S 17 27 1029.1 - 0.0 - - - - - - -
21/10:30am 18.0 S 17 23 1029.1 - 0.0 - - - - - - -
21/10:20am 18.0 S 15 25 1029.2 - 0.0 - - - - - - -
21/10:00am 19.5 SSW 15 22 1028.9 - 0.0 - - - - - - -
21/09:30am 19.1 S 18 25 1028.9 - 0.0 - - - - - - -
21/09:00am 18.3 S 21 29 1028.5 - 0.6 - - - - - - -
21/08:49am 18.2 S 17 29 1028.4 - 0.6 - - - - - - -
21/08:30am 18.3 S 17 24 1028.2 - 0.6 - - - - - - -
21/08:00am 18.1 S 15 22 1027.9 - 0.6 - - - - - - -
21/07:30am 17.9 S 15 21 1027.6 - 0.6 - - - - - - -
21/07:00am 17.3 SSW 9 15 1027.5 - 0.6 - - - - - - -
21/06:30am 17.2 SSW 11 16 1027.2 - 0.6 - - - - - - -
21/06:00am 17.4 S 13 22 1026.8 - 0.6 - - - - - - -
21/05:30am 18.1 S 14 19 1026.3 - 0.6 - - - - - - -
21/05:00am 18.8 SSE 17 24 1026.0 - 0.6 - - - - - - -
21/04:30am 18.2 S 15 23 1026.1 - 0.6 - - - - - - -
21/04:00am 17.5 SSW 12 17 1026.2 - 0.6 - - - - - - -
21/03:30am 17.3 SSW 12 18 1026.1 - 0.6 - - - - - - -
21/03:00am 17.3 SSW 14 20 1026.4 - 0.6 Recent precip. - - - - - -
21/02:30am 17.7 SSW 13 19 1026.4 - 0.4 - - - - - - -
21/02:00am 17.8 SSW 11 17 1026.6 - 0.2 - - - - - - -
21/01:30am 18.0 S 14 21 1026.5 - 0.2 - - - - - - -
21/01:00am 18.2 S 15 23 1026.7 - 0.2 - - - - - - -
21/12:30am 18.1 S 16 25 1026.9 - 0.2 - - - - - - -
21/12:14am 18.0 S 17 27 1027.1 - 0.2 - - - - - - -
21/12:00am 18.1 S 18 25 1027.3 - 0.2 Recent precip. - - - - - -
 
Date/Time
EDT
Temp

°C
Wind Pressure Rain
since 9am
mm
Weather Cloud Vis
km
Sea
Height
m
Swell
Dir
 
Speed
knots
Gust
knots
hPa Trend Height
m
Period
s
Dir
20/11:47pm 18.5 S 17 27 1027.3 - 0.0 - - - - - - -
20/11:30pm 18.7 S 17 26 1027.3 - 0.0 - - - - - - -
20/11:28pm 18.7 S 18 28 1027.3 - 0.0 - - - - - - -
20/11:00pm 18.1 S 14 21 1027.4 - 0.0 - - - - - - -
20/10:30pm 19.1 S 16 26 1027.4 - 0.0 - - - - - - -
20/10:01pm 19.0 S 21 31 1027.3 - 0.0 - - - - - - -
20/10:00pm 19.0 S 20 27 1027.3 - 0.0 - - - - - - -
20/09:30pm 18.7 S 17 23 1027.4 - 0.0 - - - - - - -
20/09:02pm 19.3 S 19 29 1026.9 - 0.0 - - - - - - -
20/09:00pm 19.3 S 20 29 1026.9 - 0.0 - - - - - - -
20/08:30pm 19.4 S 21 32 1026.2 - 0.0 - - - - - - -
20/08:00pm 19.4 S 22 32 1026.0 - 0.0 - - - - - - -
20/07:30pm 19.4 S 23 34 1025.6 - 0.0 - - - - - - -
20/07:00pm 19.6 S 23 33 1025.1 - 0.0 - - - - - - -
20/06:31pm 20.0 S 23 34 1024.8 - 0.0 - - - - - - -
20/06:30pm 20.0 S 22 31 1024.8 - 0.0 - - - - - - -
20/06:00pm 20.3 S 20 31 1024.6 - 0.0 - - - - - - -
20/05:55pm 20.6 S 15 27 1024.7 - 0.0 - - - - - - -
20/05:30pm 20.7 S 14 19 1024.4 - 0.0 - - - - - - -
20/05:00pm 22.2 S 11 16 1024.1 - 0.0 - - - - - - -
20/04:30pm 22.6 S 9 13 1023.9 - 0.0 - - - - - - -
20/04:00pm 22.9 SE 7 10 1023.5 - 0.0 - - - - - - -
20/03:30pm 23.4 E 8 12 1023.2 - 0.0 - - - - - - -
20/03:00pm 23.4 E 10 14 1023.2 - 0.0 - - - - - - -
20/02:30pm 24.3 NE 8 13 1023.1 - 0.0 - - - - - - -
20/02:00pm 23.7 ENE 11 15 1023.4 - 0.0 - - - - - - -
20/01:30pm 24.5 ENE 10 14 1023.5 - 0.0 - - - - - - -
20/01:00pm 23.5 ENE 11 15 1023.7 - 0.0 - - - - - - -
20/12:30pm 23.3 E 12 16 1023.9 - 0.0 - - - - - - -
20/12:00pm 23.1 E 12 16 1024.0 - 0.0 - - - - - - -
20/11:30am 24.0 ENE 10 12 1024.3 - 0.0 - - - - - - -
20/11:00am 25.2 N 7 10 1024.5 - 0.0 - - - - - - -
20/10:30am 24.3 N 7 11 1024.6 - 0.0 - - - - - - -
20/10:00am 24.0 NNW 7 12 1024.8 - 0.0 - - - - - - -
20/09:30am 22.0 N 5 7 1024.8 - 0.0 - - - - - - -
20/09:00am 20.6 N 7 10 1024.9 - 0.0 - - - - - - -
20/08:30am 18.9 N 5 7 1024.9 - 0.0 - - - - - - -
20/08:00am 17.1 N 4 7 1024.8 - 0.0 - - - - - - -
20/07:30am 14.5 NNW 5 7 1024.5 - 0.0 - - - - - - -
20/07:00am 12.5 NNW 5 7 1024.4 - 0.0 - - - - - - -
20/06:30am 11.8 NNW 6 10 1024.3 - 0.0 - - - - - - -
20/06:00am 11.8 NNW 7 8 1024.2 - 0.0 - - - - - - -
20/05:30am 11.7 NNW 6 8 1024.0 - 0.0 - - - - - - -
20/05:00am 12.5 N 5 6 1024.0 - 0.0 - - - - - - -
20/04:30am 13.2 NNW 5 6 1024.1 - 0.0 - - - - - - -
20/04:00am 13.7 NNW 5 7 1024.0 - 0.0 - - - - - - -
20/03:30am 13.8 NNW 5 6 1024.3 - 0.0 - - - - - - -
20/03:00am 13.9 N 5 7 1024.3 - 0.0 - - - - - - -
20/02:30am 14.3 N 5 6 1024.6 - 0.0 - - - - - - -
20/02:00am 14.5 NNW 5 5 1025.1 - 0.0 - - - - - - -
20/01:30am 14.6 NNW 5 6 1025.4 - 0.0 - - - - - - -
20/01:00am 14.7 NNW 5 5 1025.9 - 0.0 - - - - - - -
20/12:30am 14.8 NNW 5 5 1026.2 - 0.0 - - - - - - -
20/12:00am 15.1 NNW 5 5 1026.4 - 0.0 - - - - - - -
 
Date/Time
EDT
Temp

°C
Wind Pressure Rain
since 9am
mm
Weather Cloud Vis
km
Sea
Height
m
Swell
Dir
 
Speed
knots
Gust
knots
hPa Trend Height
m
Period
s
Dir
19/11:30pm 15.5 N 5 5 1026.5 - 0.0 - - - - - - -
19/11:00pm 15.7 N 4 5 1026.6 - 0.0 - - - - - - -
19/10:30pm 15.9 N 4 6 1026.5 - 0.0 - - - - - - -
19/10:00pm 16.8 NNE 6 7 1026.2 - 0.0 - - - - - - -
19/09:30pm 16.7 NNE 5 7 1026.2 - 0.0 - - - - - - -
19/09:00pm 16.8 NNE 5 7 1025.9 - 0.0 - - - - - - -
19/08:30pm 17.3 NE 5 8 1025.5 - 0.0 - - - - - - -
19/08:00pm 17.6 NE 7 9 1025.3 - 0.0 - - - - - - -
19/07:30pm 17.6 NE 5 9 1025.0 - 0.0 - - - - - - -
19/07:00pm 18.1 ENE 7 10 1024.9 - 0.0 - - - - - - -
19/06:30pm 18.7 ENE 8 15 1024.6 - 0.0 - - - - - - -
19/06:00pm 19.4 E 8 12 1024.3 - 0.0 - - - - - - -
19/05:30pm 20.0 E 10 14 1024.2 - 0.0 - - - - - - -
19/05:00pm 20.4 E 9 14 1024.3 - 0.0 - - - - - - -
19/04:30pm 20.8 E 9 15 1024.3 - 0.0 - - - - - - -
19/04:00pm 21.2 ESE 10 13 1024.3 - 0.0 - - - - - - -
19/03:30pm 21.8 ESE 9 12 1024.6 - 0.0 - - - - - - -
19/03:00pm 21.6 ESE 10 13 1024.9 - 0.0 - - - - - - -
19/02:30pm 21.5 ESE 10 13 1025.4 - 0.0 - - - - - - -
19/02:00pm 22.2 ESE 11 15 1025.7 - 0.0 - - - - - - -
19/01:30pm 23.0 SE 9 13 1026.2 - 0.0 - - - - - - -
19/01:00pm 22.8 SE 11 14 1026.6 - 0.0 - - - - - - -
19/12:30pm 22.3 SE 10 13 1027.2 - 0.0 - - - - - - -
19/12:00pm 22.0 SE 10 13 1027.6 - 0.0 - - - - - - -
19/11:30am 22.2 SE 9 14 1027.8 - 0.0 - - - - - - -
19/11:00am 22.0 S 9 12 1028.1 - 0.0 - - - - - - -
19/10:30am 21.8 SSE 8 11 1028.4 - 0.0 - - - - - - -
19/10:00am 21.5 S 8 11 1028.4 - 0.0 - - - - - - -
19/09:30am 21.7 S 7 11 1028.5 - 0.0 - - - - - - -
19/09:00am 20.2 S 7 9 1028.3 - 0.0 - - - - - - -
19/08:30am 20.0 SSW 7 11 1028.0 - 0.0 - - - - - - -
19/08:00am 18.1 SW 6 8 1027.9 - 0.0 - - - - - - -
19/07:30am 16.0 WSW 5 7 1027.5 - 0.0 - - - - - - -
19/07:00am 15.4 SW 6 9 1027.2 - 0.0 - - - - - - -
19/06:30am 15.1 WSW 7 9 1026.9 - 0.0 - - - - - - -
19/06:00am 14.9 WSW 6 9 1026.8 - 0.0 - - - - - - -
19/05:30am 15.1 W 6 8 1026.5 - 0.0 - - - - - - -
19/05:00am 16.0 SSW 3 5 1026.3 - 0.0 - - - - - - -
19/04:30am 16.1 S 1 4 1026.1 - 0.0 - - - - - - -
19/04:00am 15.8 SSW 4 6 1026.3 - 0.0 - - - - - - -
19/03:30am 15.8 WSW 5 6 1026.2 - 0.0 - - - - - - -
19/03:00am 15.9 W 5 7 1026.3 - 0.0 - - - - - - -
19/02:30am 17.3 SE 3 4 1026.6 - 0.0 - - - - - - -
19/02:00am 17.5 SE 8 12 1026.9 - 0.0 - - - - - - -
19/01:30am 17.9 SE 6 9 1026.9 - 0.0 - - - - - - -
19/01:00am 17.8 SE 6 8 1027.3 - 0.0 - - - - - - -
19/12:30am 18.2 SE 8 11 1027.7 - 0.0 - - - - - - -
19/12:00am 18.2 SE 8 11 1027.8 - 0.0 - - - - - - -
 
Date/Time
EDT
Temp

°C
Wind Pressure Rain
since 9am
mm
Weather Cloud Vis
km
Sea
Height
m
Swell
Dir
 
Speed
knots
Gust
knots
hPa Trend Height
m
Period
s
Dir
18/11:30pm 18.3 SE 9 13 1027.9 - 0.0 - - - - - - -
18/11:00pm 18.4 SE 10 13 1028.0 - 0.0 - - - - - - -
18/10:30pm 18.5 SE 9 13 1028.0 - 0.0 - - - - - - -
18/10:00pm 18.3 SSE 10 14 1027.9 - 0.0 - - - - - - -
18/09:30pm 18.1 SSE 8 12 1027.7 - 0.0 - - - - - - -
18/09:00pm 17.5 SSE 5 7 1027.6 - 0.0 - - - - - - -
18/08:30pm 16.8 SSE 7 9 1027.5 - 0.0 - - - - - - -
18/08:00pm 16.7 SSE 8 11 1026.9 - 0.0 - - - - - - -
18/07:30pm 16.5 S 8 11 1026.8 - 0.0 - - - - - - -
18/07:00pm 17.0 SSE 8 12 1026.4 - 0.0 - - - - - - -
18/06:30pm 17.5 SSE 12 16 1026.1 - 0.0 - - - - - - -
18/06:00pm 18.4 S 15 20 1025.7 - 0.0 - - - - - - -
18/05:30pm 19.0 S 13 18 1025.5 - 0.0 - - - - - - -
18/05:00pm 19.7 S 13 17 1025.3 - 0.0 - - - - - - -
18/04:30pm 20.0 S 15 20 1025.2 - 0.0 - - - - - - -
18/04:00pm 19.9 S 15 21 1025.3 - 0.0 - - - - - - -
18/03:30pm 20.4 S 14 21 1025.5 - 0.0 - - - - - - -
18/03:00pm 20.4 S 14 19 1025.7 - 0.0 - - - - - - -
18/02:30pm 20.5 SSE 15 20 1026.0 - 0.0 - - - - - - -
18/02:00pm 20.8 S 17 23 1026.1 - 0.0 - - - - - - -
18/01:30pm 20.8 S 17 24 1026.4 - 0.0 - - - - - - -

Other Formats:

Comma delimited format used in spreadsheet applications
http://www.bom.gov.au/fwo/IDN60701/IDN60701.94598.axf

JavaScript Object Notation format (JSON) in row-major order
http://www.bom.gov.au/fwo/IDN60701/IDN60701.94598.json